createdAt,value
2022-10-03T00:00:12.463Z,11.10469
2022-10-03T00:05:13.404Z,10.93025
2022-10-03T00:10:14.376Z,10.86402
2022-10-03T00:15:15.306Z,10.85336
2022-10-03T00:20:16.285Z,10.83075
2022-10-03T00:25:17.254Z,10.85207
2022-10-03T00:30:18.225Z,10.99098
2022-10-03T00:35:19.182Z,10.98096
2022-10-03T00:40:20.109Z,10.86887
2022-10-03T00:45:21.072Z,10.91539
2022-10-03T00:50:22.023Z,10.93154
2022-10-03T00:55:22.940Z,10.91506
2022-10-03T01:00:23.858Z,10.90602
2022-10-03T01:05:24.800Z,10.91539
2022-10-03T01:10:25.790Z,11.03007
2022-10-03T01:15:26.831Z,11.074
2022-10-03T01:20:27.847Z,11.0207
2022-10-03T01:25:28.779Z,10.95124
2022-10-03T01:30:29.698Z,10.87598
2022-10-03T01:35:30.637Z,11.08046
2022-10-03T01:40:31.600Z,11.00907
2022-10-03T01:45:32.551Z,10.95254
2022-10-03T01:50:33.659Z,11.03653
2022-10-03T01:55:34.575Z,11.09274
2022-10-03T02:00:35.635Z,11.2549
2022-10-03T02:05:36.715Z,11.03039
2022-10-03T02:10:37.650Z,11.0333
2022-10-03T02:15:38.648Z,10.99162
2022-10-03T02:20:39.656Z,11.06334
2022-10-03T02:25:40.597Z,11.08111
2022-10-03T02:30:41.536Z,11.1147
2022-10-03T02:35:42.489Z,11.13247
2022-10-03T02:40:43.404Z,11.04008
2022-10-03T02:45:44.376Z,11.05946
2022-10-03T02:50:45.381Z,11.08369
2022-10-03T02:55:46.321Z,11.03524
2022-10-03T03:00:47.452Z,11.06786
2022-10-03T03:05:48.478Z,11.12116
2022-10-03T03:10:49.387Z,11.08789
2022-10-03T03:15:50.408Z,11.13215
2022-10-03T03:20:51.451Z,11.2646
2022-10-03T03:25:52.360Z,11.35246
2022-10-03T03:30:53.317Z,11.34342
2022-10-03T03:35:54.571Z,11.24941
2022-10-03T03:40:55.789Z,11.28269
2022-10-03T03:45:56.807Z,11.32404
2022-10-03T03:50:57.817Z,11.33534
2022-10-03T03:55:58.767Z,11.30207
2022-10-03T04:00:59.699Z,11.41061
2022-10-03T04:06:00.673Z,11.43161
2022-10-03T04:11:01.578Z,11.49913
2022-10-03T04:16:02.520Z,11.29884
2022-10-03T04:21:03.480Z,11.4707
2022-10-03T04:26:04.416Z,11.4497
2022-10-03T04:31:05.351Z,11.38218
2022-10-03T04:36:06.252Z,11.38768
2022-10-03T04:41:07.176Z,11.41352
2022-10-03T04:46:08.183Z,11.29593
2022-10-03T04:51:09.248Z,11.31693
2022-10-03T04:56:10.131Z,11.27364
2022-10-03T05:01:11.110Z,11.34019
2022-10-03T05:06:12.053Z,11.41836
2022-10-03T05:11:13.031Z,11.37282
2022-10-03T05:16:13.997Z,11.35279
2022-10-03T05:21:14.964Z,11.34536
2022-10-03T05:26:43.535Z,11.32759
2022-10-03T05:31:45.416Z,11.30788
2022-10-03T05:36:46.420Z,11.2591
2022-10-03T05:42:04.886Z,11.28301
2022-10-03T05:47:20.334Z,11.22002
2022-10-03T05:52:21.347Z,11.22454
2022-10-03T05:57:22.292Z,11.2759
2022-10-03T06:02:23.350Z,11.33954
2022-10-03T06:07:24.358Z,11.40544
2022-10-03T06:12:25.314Z,11.41804
2022-10-03T06:33:47.713Z,12.05606
2022-10-03T06:38:48.655Z,11.89421
2022-10-03T06:43:49.588Z,11.76338
2022-10-03T06:48:50.569Z,11.63513
2022-10-03T06:53:51.550Z,11.62608
2022-10-03T06:58:52.503Z,11.55081
2022-10-03T07:03:53.480Z,11.59442
2022-10-03T07:08:54.460Z,11.67712
2022-10-03T07:13:55.565Z,11.59442
2022-10-03T07:18:56.847Z,11.74012
2022-10-03T07:23:57.806Z,11.90519
2022-10-03T07:28:58.722Z,12.01858
2022-10-03T07:33:59.693Z,12.08545
2022-10-03T07:39:00.640Z,12.01503
2022-10-03T07:44:01.730Z,12.20595
2022-10-03T07:49:02.651Z,12.33162
2022-10-03T07:54:03.590Z,12.58779
2022-10-03T07:59:04.520Z,13.08884
2022-10-03T08:04:05.597Z,12.92764
2022-10-03T08:09:06.586Z,12.73446
2022-10-03T08:14:07.572Z,12.62624
2022-10-03T08:19:10.683Z,12.58715
2022-10-03T08:24:12.017Z,12.57358
2022-10-03T10:24:24.007Z,15.36476
2022-10-03T10:29:24.943Z,15.25363
2022-10-03T10:34:25.920Z,15.40999
2022-10-03T10:39:26.859Z,15.97889
2022-10-03T10:44:27.807Z,16.25156
2022-10-03T10:49:28.849Z,16.33943
2022-10-03T10:54:29.861Z,16.60079
2022-10-03T10:59:30.871Z,16.86053
2022-10-03T11:04:31.876Z,16.88121
2022-10-03T11:09:32.864Z,16.92902
2022-10-03T11:14:33.794Z,16.83113
2022-10-03T11:19:34.752Z,16.5701
2022-10-03T11:24:35.683Z,16.58528
2022-10-03T11:29:36.746Z,16.54877
2022-10-03T11:34:37.702Z,16.57494
2022-10-03T11:39:38.622Z,16.46898
2022-10-03T11:44:39.554Z,16.30583
2022-10-03T11:49:40.514Z,16.20859
2022-10-03T11:54:41.597Z,16.41438
2022-10-03T11:59:42.548Z,16.31875
2022-10-03T12:04:43.544Z,16.30002
2022-10-03T12:09:44.485Z,16.16853
2022-10-03T12:14:45.406Z,16.34428
2022-10-03T12:19:46.392Z,16.3866
2022-10-03T12:24:47.349Z,16.32489
2022-10-03T12:29:48.281Z,16.4076
2022-10-03T12:34:49.239Z,16.37141
2022-10-03T12:39:50.213Z,16.47479
2022-10-03T12:44:51.169Z,16.573
2022-10-03T12:49:52.090Z,16.66895
2022-10-03T12:54:53.142Z,16.88476
2022-10-03T12:59:54.085Z,17.25111
2022-10-03T13:04:55.049Z,17.19296
2022-10-03T13:09:56.311Z,17.31282
2022-10-03T13:14:57.292Z,17.99417
2022-10-03T13:19:58.201Z,18.16055
2022-10-03T13:24:59.177Z,18.36117
2022-10-03T13:30:00.115Z,18.42546
2022-10-03T13:35:01.128Z,18.04456
2022-10-03T13:40:02.200Z,17.73539
2022-10-03T13:45:03.144Z,17.55027
2022-10-03T13:50:04.130Z,17.7874
2022-10-03T13:55:05.075Z,17.55124
2022-10-03T14:00:06.013Z,17.49406
2022-10-03T14:05:06.986Z,17.6417
2022-10-03T14:10:08.127Z,17.7173
2022-10-03T14:15:09.186Z,17.53735
2022-10-03T14:20:10.176Z,17.58096
2022-10-03T14:25:11.158Z,17.56804
2022-10-03T14:30:12.080Z,17.54543
2022-10-03T14:35:13.512Z,17.28277
2022-10-03T14:40:14.469Z,17.10089
2022-10-03T14:45:15.416Z,16.71935
2022-10-03T14:50:16.459Z,16.7032
2022-10-03T14:55:17.485Z,16.75941
2022-10-03T15:00:18.401Z,16.71127
2022-10-03T15:05:19.368Z,16.57591
2022-10-03T15:10:20.320Z,16.45735
2022-10-03T15:15:21.476Z,16.27999
2022-10-03T15:20:22.429Z,16.16401
2022-10-03T15:25:23.542Z,16.10586
2022-10-03T15:30:29.160Z,16.09875
2022-10-03T15:35:32.522Z,16.08163
2022-10-03T15:40:33.567Z,16.11006
2022-10-03T15:45:34.569Z,16.01378
2022-10-03T15:50:35.623Z,15.90847
2022-10-03T15:55:36.601Z,15.89264
2022-10-03T16:00:37.612Z,15.70882
2022-10-03T16:05:38.577Z,15.57992
2022-10-03T16:10:39.515Z,15.48881
2022-10-03T16:15:40.607Z,15.47363
2022-10-03T16:20:41.592Z,15.37445
2022-10-03T16:25:42.613Z,15.39383
2022-10-03T16:30:43.606Z,15.37025
2022-10-03T16:35:44.610Z,15.27236
2022-10-03T16:40:45.594Z,15.19968
2022-10-03T16:45:46.646Z,15.05107
2022-10-03T16:50:47.569Z,14.80232
2022-10-03T16:55:48.512Z,14.72026
2022-10-03T17:00:56.447Z,14.73997
2022-10-03T17:06:10.449Z,14.56875
2022-10-03T17:11:11.379Z,14.477
2022-10-03T17:16:12.499Z,14.41013
2022-10-03T17:21:13.456Z,14.38816
2022-10-03T17:26:14.415Z,14.39333
2022-10-03T17:31:15.524Z,14.31289
2022-10-03T17:36:16.479Z,14.26831
2022-10-03T17:41:17.380Z,14.2276
2022-10-03T17:46:18.439Z,14.14974
2022-10-03T17:51:19.513Z,14.1701
2022-10-03T17:56:20.556Z,14.17204
2022-10-03T18:01:21.589Z,14.10452
2022-10-03T18:06:22.690Z,14.07738
2022-10-03T18:11:23.796Z,14.0412
2022-10-03T18:16:24.834Z,14.05897
2022-10-03T18:21:25.876Z,14.05283
2022-10-03T18:26:26.944Z,13.92781
2022-10-03T18:31:27.962Z,13.88355
2022-10-03T18:36:28.943Z,13.89486
2022-10-03T18:41:29.880Z,13.87903
2022-10-03T18:46:30.921Z,13.91585
2022-10-03T18:51:31.850Z,13.92942
2022-10-03T18:56:32.772Z,13.90552
2022-10-03T19:01:33.885Z,13.80214
2022-10-03T19:06:34.888Z,13.65677
2022-10-03T19:11:35.811Z,13.63803
2022-10-03T19:16:36.934Z,13.55694
2022-10-03T19:21:38.336Z,13.48329
2022-10-03T19:26:39.516Z,13.39929
2022-10-03T19:31:40.655Z,13.37603
2022-10-03T19:36:41.767Z,13.35924
2022-10-03T19:41:42.656Z,13.33533
2022-10-03T19:46:43.631Z,13.23938
2022-10-03T19:51:44.526Z,13.20159
2022-10-03T19:56:45.505Z,13.21871
2022-10-03T20:01:46.591Z,13.20223
2022-10-03T20:06:47.578Z,13.15345
2022-10-03T20:11:48.489Z,13.19157
2022-10-03T20:16:49.498Z,13.20902
2022-10-03T20:21:50.467Z,13.17219
2022-10-03T20:26:51.431Z,13.21386
2022-10-03T20:31:52.444Z,13.16799
2022-10-03T20:36:53.403Z,13.24294
2022-10-03T20:41:54.316Z,13.23195
2022-10-03T20:46:55.201Z,13.23938
2022-10-03T20:51:56.333Z,13.21031
2022-10-03T20:56:57.687Z,13.15151
2022-10-03T21:01:58.656Z,13.11921
2022-10-03T21:06:59.609Z,13.12309
2022-10-03T21:12:00.542Z,13.09918
2022-10-03T21:17:01.906Z,13.0084
2022-10-03T21:22:02.900Z,12.94993
2022-10-03T21:27:03.859Z,12.95284
2022-10-03T21:32:04.966Z,12.94024
2022-10-03T21:37:05.936Z,12.98514
2022-10-03T21:42:06.842Z,12.92247
2022-10-03T21:47:07.737Z,12.97384
2022-10-03T21:52:08.680Z,13.06687
2022-10-03T21:57:09.664Z,13.08141
2022-10-03T22:02:10.663Z,13.01163
2022-10-03T22:07:11.648Z,13.04297
2022-10-03T22:12:12.581Z,13.10112
2022-10-03T22:17:13.495Z,13.13698
2022-10-03T22:22:14.466Z,13.11501
2022-10-03T22:27:15.409Z,13.00582
2022-10-03T22:32:16.315Z,13.01002
2022-10-03T22:37:20.669Z,12.90341
2022-10-03T22:42:21.630Z,12.84623
2022-10-03T22:47:22.592Z,12.79713
2022-10-03T22:52:23.515Z,12.77936
2022-10-03T22:57:24.438Z,12.83331
2022-10-03T23:02:25.399Z,12.91763
2022-10-03T23:07:26.337Z,12.94185
2022-10-03T23:12:27.287Z,12.99063
2022-10-03T23:17:28.666Z,12.93798
2022-10-03T23:22:29.745Z,12.97642
2022-10-03T23:27:30.861Z,12.91956
2022-10-03T23:32:31.905Z,12.85722
2022-10-03T23:37:32.924Z,12.88015
2022-10-03T23:42:33.918Z,12.92861
2022-10-03T23:47:34.827Z,12.96641
2022-10-03T23:52:35.747Z,12.93798
2022-10-03T23:57:36.675Z,12.97093
